Time;durP1;ratioP1;P1;durP2;ratioP2;P2;SDS_P1;SDS_P2;PMS_P1;PMS_P2;Temp;Humidity;BMP_temperature;BMP_pressure;BME280_temperature;BME280_humidity;BME280_pressure;Samples;Min_cycle;Max_cycle;Signal;HPM_P1;HPM_P2
2022/06/24 00:00:11;;;;;;;3.42;2.28;;;22.00;71.10;;;;;;5039856;28;20128;-67
2022/06/24 00:02:40;;;;;;;5.20;2.15;;;21.90;71.70;;;;;;5055758;28;20041;-67
2022/06/24 00:05:13;;;;;;;4.38;2.28;;;21.90;72.60;;;;;;5047664;28;20052;-67
2022/06/24 00:07:47;;;;;;;5.35;2.45;;;21.90;72.90;;;;;;5047942;28;20458;-66
2022/06/24 00:10:15;;;;;;;4.95;2.30;;;21.80;72.60;;;;;;5040912;28;20048;-66
2022/06/24 00:12:40;;;;;;;4.22;2.60;;;21.80;72.20;;;;;;5049412;28;20437;-67
2022/06/24 00:15:07;;;;;;;5.35;2.28;;;21.80;72.70;;;;;;5044438;28;20033;-67
2022/06/24 00:17:33;;;;;;;5.25;2.38;;;21.70;73.40;;;;;;5052992;28;20037;-67
2022/06/24 00:20:03;;;;;;;5.60;2.47;;;21.70;74.00;;;;;;5054673;28;20033;-66
2022/06/24 00:22:30;;;;;;;4.93;2.70;;;21.70;74.40;;;;;;5049541;28;20440;-67
2022/06/24 00:25:09;;;;;;;5.90;2.38;;;21.60;74.90;;;;;;5036376;28;20198;-67
2022/06/24 00:27:35;;;;;;;3.40;2.40;;;21.50;75.80;;;;;;5043795;28;20511;-67
2022/06/24 00:30:11;;;;;;;5.10;2.53;;;21.50;75.80;;;;;;5050435;28;20037;-67
2022/06/24 00:32:37;;;;;;;7.47;3.15;;;21.40;76.10;;;;;;5046372;28;20056;-67
2022/06/24 00:35:04;;;;;;;8.30;5.20;;;21.30;76.40;;;;;;5038039;28;20033;-67
2022/06/24 00:37:32;;;;;;;6.28;4.63;;;21.20;77.00;;;;;;5048073;28;20045;-67
2022/06/24 00:40:21;;;;;;;;;;;21.20;77.20;;;;;;5060305;28;20511;-67
2022/06/24 00:42:47;;;;;;;11.57;4.25;;;21.10;78.40;;;;;;5052058;28;19967;-67
2022/06/24 00:45:24;;;;;;;6.32;4.10;;;21.00;78.00;;;;;;5048554;28;20131;-68
2022/06/24 00:47:51;;;;;;;7.25;3.40;;;21.00;78.80;;;;;;5047702;28;20060;-67
2022/06/24 00:50:23;;;;;;;4.97;3.05;;;21.00;79.20;;;;;;5047308;28;20044;-67
2022/06/24 00:52:52;;;;;;;8.27;4.35;;;20.90;79.60;;;;;;5049849;28;20033;-67
2022/06/24 00:55:29;;;;;;;5.75;3.47;;;20.80;79.50;;;;;;5046404;28;20126;-67
2022/06/24 00:57:59;;;;;;;6.55;3.17;;;20.80;80.00;;;;;;5049860;28;20044;-67
2022/06/24 01:00:27;;;;;;;4.75;2.92;;;20.80;80.50;;;;;;5042625;28;20074;-67
2022/06/24 01:02:58;;;;;;;5.53;2.78;;;20.70;80.50;;;;;;5048359;28;20040;-67
2022/06/24 01:05:24;;;;;;;5.78;3.08;;;20.70;81.00;;;;;;5044050;28;20053;-67
2022/06/24 01:07:50;;;;;;;5.78;2.92;;;20.60;81.30;;;;;;5053861;28;20057;-66
2022/06/24 01:10:15;;;;;;;5.85;3.17;;;20.50;81.50;;;;;;5022712;28;20041;-67
2022/06/24 01:12:41;;;;;;;6.43;2.63;;;20.40;81.40;;;;;;5050826;28;20049;-67
2022/06/24 01:15:07;;;;;;;7.28;3.20;;;20.40;81.70;;;;;;5051921;28;20037;-67
2022/06/24 01:17:33;;;;;;;5.38;3.35;;;20.40;82.50;;;;;;5046998;28;20045;-67
2022/06/24 01:19:59;;;;;;;5.55;2.70;;;20.30;83.00;;;;;;5045982;28;20037;-66
2022/06/24 01:22:26;;;;;;;5.78;2.78;;;20.30;83.20;;;;;;5050837;28;20045;-67
2022/06/24 01:24:53;;;;;;;7.75;3.38;;;20.20;83.30;;;;;;5044207;28;20051;-66
2022/06/24 01:27:19;;;;;;;6.82;3.08;;;20.20;83.50;;;;;;5042001;28;20045;-66
2022/06/24 01:29:46;;;;;;;8.27;3.25;;;20.10;84.10;;;;;;5046893;28;20553;-66
2022/06/24 01:32:12;;;;;;;7.35;3.45;;;20.10;84.50;;;;;;5049059;28;20167;-67
2022/06/24 01:34:38;;;;;;;6.03;2.90;;;20.00;85.00;;;;;;5038345;28;20398;-67
2022/06/24 01:37:04;;;;;;;8.18;3.33;;;20.00;85.50;;;;;;5043847;28;20068;-67
2022/06/24 01:39:30;;;;;;;5.00;3.03;;;19.90;86.00;;;;;;5048155;28;20041;-66
2022/06/24 01:41:57;;;;;;;7.03;3.10;;;19.90;86.80;;;;;;5044428;28;20056;-66
2022/06/24 01:44:23;;;;;;;6.20;3.45;;;19.80;87.20;;;;;;5048035;28;20103;-67
2022/06/24 01:46:50;;;;;;;6.70;2.90;;;19.80;88.00;;;;;;5043614;28;20037;-65
2022/06/24 01:49:16;;;;;;;6.65;3.42;;;19.70;88.40;;;;;;5048936;28;20036;-67
2022/06/24 01:51:45;;;;;;;4.20;2.90;;;19.70;88.90;;;;;;5043187;28;20103;-67
2022/06/24 01:54:11;;;;;;;7.03;3.45;;;19.70;89.30;;;;;;5045153;28;20041;-67
2022/06/24 01:56:36;;;;;;;5.57;3.30;;;19.60;89.60;;;;;;5046226;28;20120;-66
2022/06/24 01:59:02;;;;;;;6.07;3.22;;;19.60;90.30;;;;;;5047211;28;20407;-66
2022/06/24 02:01:28;;;;;;;5.10;2.95;;;19.50;90.40;;;;;;5048295;28;20094;-66
2022/06/24 02:03:54;;;;;;;6.18;3.13;;;19.50;90.50;;;;;;5045002;28;20037;-66
2022/06/24 02:06:20;;;;;;;6.43;3.53;;;19.50;90.80;;;;;;5042533;28;20037;-67
2022/06/24 02:08:46;;;;;;;7.20;3.15;;;19.50;90.50;;;;;;5042378;28;22135;-66
2022/06/24 02:13:58;;;;;;;4.95;3.30;;;19.50;90.60;;;;;;5047279;28;20486;-66
2022/06/24 02:16:25;;;;;;;6.20;3.17;;;19.40;90.70;;;;;;5038045;28;20522;-67
2022/06/24 02:18:51;;;;;;;4.50;2.92;;;19.40;90.90;;;;;;5038413;28;20044;-66
2022/06/24 02:21:17;;;;;;;6.68;2.80;;;19.40;91.00;;;;;;5043778;28;20458;-66
2022/06/24 02:23:43;;;;;;;5.38;3.20;;;19.40;91.10;;;;;;5060782;28;20037;-65
2022/06/24 02:26:09;;;;;;;4.50;3.28;;;19.30;91.20;;;;;;5046383;28;20045;-66
2022/06/24 02:28:35;;;;;;;5.68;3.25;;;19.30;91.40;;;;;;5058616;28;20040;-66
2022/06/24 02:31:02;;;;;;;4.05;2.60;;;19.30;91.60;;;;;;5049255;28;20041;-66
2022/06/24 02:33:28;;;;;;;7.60;3.25;;;19.20;91.70;;;;;;5046226;28;20075;-67
2022/06/24 02:35:54;;;;;;;5.35;3.40;;;19.20;91.90;;;;;;5044172;28;20036;-67
2022/06/24 02:38:20;;;;;;;7.85;3.92;;;19.20;91.90;;;;;;5049914;28;20037;-66
2022/06/24 02:40:46;;;;;;;5.85;3.30;;;19.20;92.00;;;;;;5042226;28;20051;-66
2022/06/24 02:43:12;;;;;;;7.90;3.25;;;19.10;92.00;;;;;;5040076;28;20063;-66
2022/06/24 02:45:42;;;;;;;9.85;3.90;;;19.10;92.10;;;;;;5043288;28;20041;-66
2022/06/24 02:48:08;;;;;;;7.43;3.40;;;19.10;91.80;;;;;;5046230;28;20045;-66
2022/06/24 02:50:45;;;;;;;5.57;3.03;;;19.10;91.80;;;;;;5047265;28;20414;-66
2022/06/24 02:53:12;;;;;;;5.32;3.60;;;19.10;91.80;;;;;;5046951;28;20041;-66
2022/06/24 02:55:38;;;;;;;5.13;3.15;;;19.10;91.80;;;;;;5044989;28;20037;-66
2022/06/24 02:58:05;;;;;;;5.93;3.50;;;19.00;91.70;;;;;;5049052;28;20040;-66
2022/06/24 03:00:31;;;;;;;5.32;3.45;;;19.00;91.50;;;;;;5063647;28;20115;-65
2022/06/24 03:02:57;;;;;;;5.35;3.25;;;19.00;91.50;;;;;;5045762;28;20036;-66
2022/06/24 03:05:23;;;;;;;6.47;3.35;;;19.00;91.60;;;;;;5039235;28;20496;-66
2022/06/24 03:07:49;;;;;;;5.15;3.58;;;19.00;91.60;;;;;;5035800;28;20282;-66
2022/06/24 03:10:15;;;;;;;6.30;3.33;;;19.00;91.70;;;;;;5046432;28;20380;-66
2022/06/24 03:12:41;;;;;;;5.13;3.40;;;19.00;91.60;;;;;;5045725;28;20049;-66
2022/06/24 03:15:07;;;;;;;4.95;3.50;;;19.00;91.60;;;;;;5044183;28;20043;-66
2022/06/24 03:17:33;;;;;;;25.70;4.13;;;19.00;91.60;;;;;;5045619;28;20579;-66
2022/06/24 03:19:59;;;;;;;5.53;3.85;;;19.00;91.50;;;;;;5045178;28;20124;-66
2022/06/24 03:22:25;;;;;;;8.38;4.30;;;19.10;91.60;;;;;;5041712;28;20044;-65
2022/06/24 03:24:51;;;;;;;9.40;4.00;;;19.10;91.60;;;;;;5040763;28;20057;-64
2022/06/24 03:27:16;;;;;;;7.38;4.15;;;19.10;91.60;;;;;;5048290;28;20086;-66
2022/06/24 03:29:42;;;;;;;5.45;4.03;;;19.10;91.70;;;;;;5045395;28;20036;-66
2022/06/24 03:32:08;;;;;;;9.48;3.85;;;19.10;91.70;;;;;;5042963;28;20103;-65
2022/06/24 03:34:34;;;;;;;9.68;3.90;;;19.10;91.70;;;;;;5043109;28;20041;-65
2022/06/24 03:37:00;;;;;;;7.47;4.10;;;19.00;91.70;;;;;;5034829;28;20040;-65
2022/06/24 03:39:26;;;;;;;5.57;3.92;;;19.10;91.80;;;;;;5037798;28;20422;-66
2022/06/24 03:41:51;;;;;;;6.47;4.40;;;19.10;92.20;;;;;;5039135;28;20041;-66
2022/06/24 03:44:17;;;;;;;7.95;4.30;;;19.10;92.20;;;;;;5041264;28;20041;-65
2022/06/24 03:46:43;;;;;;;6.63;4.18;;;19.20;92.50;;;;;;5046191;28;20044;-65
2022/06/24 03:49:08;;;;;;;6.80;4.38;;;19.20;92.60;;;;;;5042793;28;20041;-66
2022/06/24 03:51:35;;;;;;;8.07;4.40;;;19.10;92.50;;;;;;5057658;28;20072;-66
2022/06/24 03:54:01;;;;;;;6.70;3.85;;;19.10;92.60;;;;;;5045249;28;20032;-67
2022/06/24 03:56:27;;;;;;;7.15;4.20;;;19.10;92.70;;;;;;5044747;28;20052;-67
2022/06/24 03:58:52;;;;;;;5.47;3.70;;;19.10;92.90;;;;;;5043620;28;20045;-66
2022/06/24 04:01:18;;;;;;;4.95;3.95;;;19.10;92.90;;;;;;5038953;28;20043;-66
2022/06/24 04:03:44;;;;;;;9.23;4.32;;;19.10;93.20;;;;;;5028381;28;20045;-66
2022/06/24 04:06:09;;;;;;;5.65;3.88;;;19.10;93.10;;;;;;5041082;28;20049;-66
2022/06/24 04:08:35;;;;;;;8.82;4.25;;;19.00;93.00;;;;;;5043881;28;20107;-65
2022/06/24 04:11:11;;;;;;;5.93;3.85;;;19.00;93.00;;;;;;5048207;28;20103;-65
2022/06/24 04:13:37;;;;;;;8.77;4.07;;;19.10;92.90;;;;;;5044329;28;20087;-67
2022/06/24 04:16:02;;;;;;;8.65;4.18;;;19.10;92.90;;;;;;5040573;28;20037;-67
2022/06/24 04:18:28;;;;;;;8.07;3.70;;;19.10;93.00;;;;;;5043144;28;20040;-66
2022/06/24 04:20:54;;;;;;;6.18;3.85;;;19.10;92.80;;;;;;5065229;28;20049;-66
2022/06/24 04:23:19;;;;;;;8.00;3.92;;;19.20;93.00;;;;;;5046204;28;20340;-66
2022/06/24 04:25:49;;;;;;;5.45;3.75;;;19.20;92.90;;;;;;5046916;28;20041;-66
2022/06/24 04:28:14;;;;;;;9.30;4.03;;;19.20;92.80;;;;;;5050544;28;20041;-65
2022/06/24 04:30:40;;;;;;;6.53;3.60;;;19.30;92.80;;;;;;5044743;28;20037;-67
2022/06/24 04:33:06;;;;;;;6.35;4.20;;;19.30;92.80;;;;;;5052009;28;20086;-67
2022/06/24 04:35:32;;;;;;;5.95;3.88;;;19.30;93.10;;;;;;5051408;28;20045;-66
2022/06/24 04:37:57;;;;;;;9.15;4.18;;;19.40;92.90;;;;;;5052159;28;20059;-66
2022/06/24 04:40:23;;;;;;;7.07;4.22;;;19.40;92.80;;;;;;5039222;28;20056;-66
2022/06/24 04:42:49;;;;;;;5.18;3.78;;;19.50;92.90;;;;;;5049335;28;20075;-65
2022/06/24 04:45:15;;;;;;;7.97;3.90;;;19.50;92.80;;;;;;5045368;28;20040;-66
2022/06/24 04:47:40;;;;;;;6.68;4.10;;;19.60;92.70;;;;;;5049884;28;20037;-65
2022/06/24 04:50:07;;;;;;;5.97;4.00;;;19.60;92.60;;;;;;5047614;28;20131;-65
2022/06/24 04:52:34;;;;;;;7.38;3.95;;;19.70;92.60;;;;;;5035214;28;20050;-66
2022/06/24 04:55:00;;;;;;;11.00;4.30;;;19.70;92.40;;;;;;5044792;28;20037;-66
2022/06/24 04:57:26;;;;;;;7.00;3.80;;;19.70;92.40;;;;;;5041206;28;20037;-66
2022/06/24 04:59:52;;;;;;;10.70;4.22;;;19.80;92.30;;;;;;5042316;28;20041;-66
2022/06/24 05:02:18;;;;;;;12.05;3.75;;;19.90;92.30;;;;;;5046969;28;20045;-66
2022/06/24 05:04:44;;;;;;;11.38;4.13;;;20.00;92.20;;;;;;5047086;28;20069;-65
2022/06/24 05:07:10;;;;;;;8.30;3.78;;;20.10;92.50;;;;;;5042481;28;20041;-66
2022/06/24 05:09:36;;;;;;;8.88;3.80;;;20.20;92.60;;;;;;5034156;28;20041;-66
2022/06/24 05:12:02;;;;;;;14.10;4.65;;;20.30;92.20;;;;;;5038950;28;20041;-65
2022/06/24 05:14:29;;;;;;;8.95;3.97;;;20.30;92.10;;;;;;5048691;28;20178;-66
2022/06/24 05:16:55;;;;;;;6.97;4.18;;;20.40;91.90;;;;;;5043531;28;20103;-66
2022/06/24 05:19:21;;;;;;;8.18;3.92;;;20.40;91.80;;;;;;5042447;28;20079;-65
2022/06/24 05:21:47;;;;;;;5.13;3.47;;;20.50;91.70;;;;;;5041588;28;20106;-66
2022/06/24 05:24:13;;;;;;;12.35;3.95;;;20.50;91.70;;;;;;5051269;28;20094;-66
2022/06/24 05:26:45;;;;;;;8.18;4.05;;;20.60;92.00;;;;;;5042480;28;20116;-66
2022/06/24 05:29:12;;;;;;;7.88;3.60;;;20.60;92.00;;;;;;5061928;28;20048;-66
2022/06/24 05:31:38;;;;;;;6.20;4.10;;;20.70;91.90;;;;;;5050279;28;20056;-66
2022/06/24 05:34:06;;;;;;;5.90;3.72;;;20.70;92.10;;;;;;5050065;28;20128;-66
2022/06/24 05:36:32;;;;;;;5.20;3.83;;;20.70;92.00;;;;;;5053252;28;20494;-65
2022/06/24 05:39:01;;;;;;;10.05;3.63;;;20.80;91.90;;;;;;5053240;28;20037;-65
2022/06/24 05:41:26;;;;;;;8.77;3.70;;;20.90;91.70;;;;;;5042476;28;20041;-66
2022/06/24 05:43:52;;;;;;;12.20;3.88;;;20.90;91.60;;;;;;5033264;28;20042;-65
2022/06/24 05:46:18;;;;;;;7.75;3.97;;;21.10;91.40;;;;;;5047580;28;20087;-66
2022/06/24 05:48:43;;;;;;;10.20;4.47;;;21.10;91.40;;;;;;5044776;28;20048;-66
2022/06/24 05:51:15;;;;;;;14.20;5.47;;;21.10;91.60;;;;;;5036244;28;20122;-67
2022/06/24 05:56:25;;;;;;;12.25;6.13;;;21.40;92.40;;;;;;5059572;28;20045;-66
2022/06/24 05:58:51;;;;;;;9.73;6.72;;;21.40;93.30;;;;;;5038648;28;20048;-66
2022/06/24 06:01:17;;;;;;;16.15;7.00;;;21.50;94.10;;;;;;5024737;28;20569;-67
2022/06/24 06:03:42;;;;;;;14.98;6.93;;;21.50;94.50;;;;;;5063056;28;20033;-66
2022/06/24 06:06:09;;;;;;;13.48;6.72;;;21.50;94.80;;;;;;5046974;28;20140;-65
2022/06/24 06:08:36;;;;;;;16.55;7.00;;;21.40;95.90;;;;;;5046598;28;20056;-65
2022/06/24 06:11:20;;;;;;;15.05;7.82;;;21.40;96.70;;;;;;5047097;28;20083;-66
2022/06/24 06:13:47;;;;;;;16.23;7.53;;;21.40;98.30;;;;;;5042523;28;20040;-66
2022/06/24 06:16:13;;;;;;;14.50;7.97;;;21.30;99.10;;;;;;5041176;28;20045;-67
2022/06/24 06:18:39;;;;;;;16.17;8.02;;;21.20;99.80;;;;;;5041418;28;20487;-66
2022/06/24 06:21:07;;;;;;;16.85;7.97;;;21.00;99.90;;;;;;5043247;28;20033;-67
2022/06/24 06:23:33;;;;;;;;;;;21.00;99.90;;;;;;5045132;28;20051;-68
2022/06/24 06:26:01;;;;;;;41.72;13.60;;;21.00;99.90;;;;;;5029340;28;19925;-70
2022/06/24 06:28:27;;;;;;;20.38;9.77;;;20.60;99.90;;;;;;5029740;28;20084;-70
2022/06/24 06:30:52;;;;;;;27.48;11.10;;;20.50;99.90;;;;;;5045982;28;20085;-69
2022/06/24 06:33:19;;;;;;;26.75;12.10;;;20.40;99.90;;;;;;5040007;28;20060;-70
2022/06/24 06:35:45;;;;;;;22.52;11.13;;;20.10;99.90;;;;;;5036161;28;20034;-69
2022/06/24 06:38:10;;;;;;;23.75;10.48;;;20.10;99.90;;;;;;5039819;28;20035;-69
2022/06/24 06:40:37;;;;;;;20.50;10.48;;;20.10;99.90;;;;;;5051420;28;20036;-69
2022/06/24 06:43:05;;;;;;;21.00;10.18;;;20.10;99.90;;;;;;5049338;28;20036;-69
2022/06/24 06:45:35;;;;;;;25.48;10.27;;;20.00;99.90;;;;;;5050781;28;20564;-69
2022/06/24 06:48:01;;;;;;;20.95;8.13;;;20.00;99.90;;;;;;5040220;28;20128;-69
2022/06/24 06:50:26;;;;;;;17.17;7.90;;;19.90;99.90;;;;;;5049962;28;20456;-69
2022/06/24 06:52:52;;;;;;;14.52;6.75;;;19.90;99.90;;;;;;5050162;28;20076;-69
2022/06/24 06:55:18;;;;;;;18.30;7.40;;;19.90;99.90;;;;;;5043437;28;20486;-68
2022/06/24 06:57:44;;;;;;;20.50;8.02;;;20.00;99.90;;;;;;5049218;28;20152;-69
2022/06/24 07:00:10;;;;;;;20.00;9.00;;;20.00;99.90;;;;;;5041481;28;20045;-68
2022/06/24 07:02:37;;;;;;;23.55;11.00;;;20.00;99.90;;;;;;5056169;28;20515;-68
2022/06/24 07:05:03;;;;;;;23.33;13.38;;;19.90;99.90;;;;;;5043410;28;20049;-68
2022/06/24 07:07:29;;;;;;;20.98;13.05;;;20.00;99.90;;;;;;5046927;28;20040;-69
2022/06/24 07:09:55;;;;;;;23.63;13.00;;;20.00;99.90;;;;;;5050056;28;20078;-68
2022/06/24 07:12:21;;;;;;;16.48;11.57;;;20.00;99.90;;;;;;5049384;28;20549;-68
2022/06/24 07:14:47;;;;;;;18.05;13.15;;;20.00;99.90;;;;;;5046723;28;20053;-68
2022/06/24 07:17:13;;;;;;;24.85;14.23;;;20.00;99.90;;;;;;5048224;28;20045;-68
2022/06/24 07:19:39;;;;;;;25.90;13.70;;;19.90;99.90;;;;;;5043888;28;20550;-68
2022/06/24 07:22:04;;;;;;;21.70;12.32;;;19.90;99.90;;;;;;5044906;28;20160;-67
2022/06/24 07:24:30;;;;;;;17.92;11.98;;;19.90;99.90;;;;;;5052201;28;20076;-68
2022/06/24 07:26:56;;;;;;;22.95;11.65;;;19.90;99.90;;;;;;5038712;28;20577;-68
2022/06/24 07:29:22;;;;;;;22.95;11.57;;;19.80;99.90;;;;;;5049566;28;20455;-68
2022/06/24 07:31:48;;;;;;;16.75;10.82;;;19.80;99.90;;;;;;5050076;28;20064;-68
2022/06/24 07:34:14;;;;;;;20.13;10.70;;;19.90;99.90;;;;;;5050610;28;20035;-68
2022/06/24 07:36:41;;;;;;;23.85;11.13;;;19.90;99.90;;;;;;5042214;28;20167;-69
2022/06/24 07:39:07;;;;;;;20.05;11.20;;;19.80;99.90;;;;;;5039893;28;20501;-69
2022/06/24 07:41:32;;;;;;;21.55;11.27;;;19.90;99.90;;;;;;5034795;28;20037;-68
2022/06/24 07:43:58;;;;;;;19.42;9.45;;;19.90;99.90;;;;;;5044039;28;20073;-68
2022/06/24 07:46:23;;;;;;;17.85;10.10;;;19.90;99.90;;;;;;5042024;28;20437;-69
2022/06/24 07:48:49;;;;;;;17.30;9.65;;;19.80;99.90;;;;;;5048678;28;20044;-68
2022/06/24 07:51:16;;;;;;;20.75;9.98;;;19.80;99.90;;;;;;5049855;28;20053;-67
2022/06/24 07:53:44;;;;;;;21.60;9.00;;;19.80;99.90;;;;;;5050873;28;20123;-67
2022/06/24 07:58:55;;;;;;;20.27;10.23;;;19.90;99.90;;;;;;5045025;28;20217;-68
2022/06/24 08:01:20;;;;;;;15.68;8.60;;;19.90;99.90;;;;;;5041183;28;20045;-68
2022/06/24 08:03:46;;;;;;;13.48;7.20;;;20.00;99.90;;;;;;5046930;28;20120;-68
2022/06/24 08:06:12;;;;;;;18.95;7.72;;;20.00;99.90;;;;;;5056981;28;20077;-68
2022/06/24 08:08:38;;;;;;;15.20;8.18;;;20.00;99.90;;;;;;5041371;28;20044;-68
2022/06/24 08:11:04;;;;;;;15.55;8.35;;;20.00;99.90;;;;;;5048641;28;20036;-68
2022/06/24 08:13:30;;;;;;;14.07;7.57;;;20.00;99.90;;;;;;5046128;28;20545;-68
2022/06/24 08:15:56;;;;;;;10.48;6.95;;;20.10;99.90;;;;;;5044568;28;20037;-68
2022/06/24 08:18:23;;;;;;;11.70;8.77;;;20.10;99.90;;;;;;5041645;28;20052;-68
2022/06/24 08:20:48;;;;;;;14.88;8.00;;;20.10;99.90;;;;;;5046577;28;20035;-68
2022/06/24 08:23:14;;;;;;;17.27;8.27;;;20.10;99.90;;;;;;5045102;28;20037;-68
2022/06/24 08:25:40;;;;;;;13.15;8.18;;;20.10;99.90;;;;;;5044281;28;20051;-68
2022/06/24 08:28:06;;;;;;;17.40;8.10;;;20.20;99.90;;;;;;5046669;28;20041;-68
2022/06/24 08:30:32;;;;;;;14.88;6.82;;;20.20;99.90;;;;;;5040630;28;20396;-67
2022/06/24 08:32:57;;;;;;;13.38;7.68;;;20.20;99.90;;;;;;5043665;28;20068;-67
2022/06/24 08:35:23;;;;;;;11.27;7.10;;;20.20;99.90;;;;;;5040590;28;20115;-67
2022/06/24 08:37:49;;;;;;;10.65;7.05;;;20.20;99.90;;;;;;5043833;28;20960;-68
2022/06/24 08:40:15;;;;;;;13.13;7.03;;;20.20;99.90;;;;;;5043870;28;20045;-68
2022/06/24 08:42:51;;;;;;;11.23;6.70;;;20.20;99.90;;;;;;5046788;28;20053;-67
2022/06/24 08:45:17;;;;;;;12.00;6.35;;;20.20;99.90;;;;;;5043798;28;20045;-67
2022/06/24 08:47:45;;;;;;;14.02;5.90;;;20.30;99.90;;;;;;5042228;28;20048;-67
2022/06/24 08:50:12;;;;;;;11.13;6.28;;;20.20;99.90;;;;;;5044581;28;20048;-67
2022/06/24 08:52:44;;;;;;;10.88;6.20;;;20.20;99.90;;;;;;5049465;28;20494;-67
2022/06/24 08:55:12;;;;;;;13.30;6.07;;;20.20;99.90;;;;;;5045335;28;20131;-67
2022/06/24 08:57:38;;;;;;;14.02;5.78;;;20.20;99.90;;;;;;5045735;28;20045;-67
2022/06/24 09:00:04;;;;;;;12.50;5.53;;;20.20;99.90;;;;;;5048381;28;20154;-69
2022/06/24 09:02:30;;;;;;;12.52;6.25;;;20.30;99.90;;;;;;5044641;28;20056;-67
2022/06/24 09:04:59;;;;;;;10.57;5.60;;;20.40;99.90;;;;;;5044399;28;20068;-67
2022/06/24 09:07:25;;;;;;;10.95;5.88;;;20.30;99.90;;;;;;5041962;28;20056;-67
2022/06/24 09:10:04;;;;;;;21.75;6.55;;;20.20;99.90;;;;;;5044920;28;20056;-67
2022/06/24 09:12:36;;;;;;;15.18;6.63;;;20.20;99.90;;;;;;5048178;28;20056;-66
2022/06/24 09:15:03;;;;;;;10.55;6.10;;;20.10;99.90;;;;;;5047961;28;20091;-67
2022/06/24 09:17:31;;;;;;;12.77;6.32;;;20.10;99.90;;;;;;5041955;28;20127;-67
2022/06/24 09:20:19;;;;;;;12.75;6.47;;;20.10;99.90;;;;;;5042493;28;21095;-68
2022/06/24 09:22:45;;;;;;;19.45;6.53;;;20.00;99.90;;;;;;5060194;28;20129;-67
2022/06/24 09:25:11;;;;;;;12.32;6.70;;;20.00;99.90;;;;;;5040241;28;20041;-68
2022/06/24 09:27:44;;;;;;;13.45;6.22;;;20.00;99.90;;;;;;5055011;28;20057;-68
2022/06/24 09:30:11;;;;;;;9.43;6.60;;;20.00;99.90;;;;;;5047311;28;20556;-68
2022/06/24 09:32:49;;;;;;;15.05;6.72;;;20.00;99.90;;;;;;5044026;28;20045;-68
2022/06/24 09:35:14;;;;;;;18.25;6.85;;;20.00;99.90;;;;;;5043854;28;20085;-67
2022/06/24 09:37:47;;;;;;;13.70;6.78;;;20.00;99.90;;;;;;5046856;28;20446;-68
2022/06/24 09:40:30;;;;;;;12.75;6.10;;;19.90;99.90;;;;;;5050385;28;20040;-67
2022/06/24 09:43:06;;;;;;;18.25;7.28;;;19.80;99.90;;;;;;5045864;28;20170;-68
2022/06/24 09:45:42;;;;;;;11.93;6.75;;;19.70;99.90;;;;;;5042636;28;20155;-68
2022/06/24 09:48:08;;;;;;;16.50;7.82;;;19.70;99.90;;;;;;5042669;28;20064;-68
2022/06/24 09:50:35;;;;;;;13.88;7.07;;;19.70;99.90;;;;;;5047840;28;20040;-68
2022/06/24 09:53:02;;;;;;;13.40;7.32;;;19.70;99.90;;;;;;5041953;28;20048;-68
2022/06/24 09:55:30;;;;;;;11.02;6.63;;;19.70;99.90;;;;;;5042860;28;20047;-67
2022/06/24 09:57:59;;;;;;;11.43;6.82;;;19.60;99.90;;;;;;5040639;28;20607;-67
2022/06/24 10:00:40;;;;;;;18.42;7.30;;;19.60;99.90;;;;;;5037257;28;20080;-68
2022/06/24 10:03:08;;;;;;;12.90;7.13;;;19.60;99.90;;;;;;5035128;28;20045;-68
2022/06/24 10:05:36;;;;;;;;;;;19.70;99.90;;;;;;5046041;28;20053;-69
2022/06/24 10:08:05;;;;;;;22.30;8.05;;;19.70;99.90;;;;;;5045867;28;20350;-68
2022/06/24 10:10:34;;;;;;;13.73;7.00;;;19.70;99.90;;;;;;5040576;28;20049;-68
2022/06/24 10:13:05;;;;;;;13.18;6.82;;;19.70;99.90;;;;;;5042826;28;20352;-68
2022/06/24 10:15:31;;;;;;;13.13;6.95;;;19.70;99.90;;;;;;5041390;28;20445;-67
2022/06/24 10:17:57;;;;;;;12.90;6.07;;;19.60;99.90;;;;;;5044951;28;20092;-70
2022/06/24 10:20:24;;;;;;;9.27;6.57;;;19.60;99.90;;;;;;5044222;28;20403;-70
2022/06/24 10:22:50;;;;;;;12.95;6.63;;;19.50;99.90;;;;;;5044882;28;20116;-70
2022/06/24 10:25:48;;;;;;;23.70;7.70;;;19.50;99.90;;;;;;5051730;28;20041;-70
2022/06/24 10:28:14;;;;;;;17.38;8.07;;;19.50;99.90;;;;;;5037100;28;20445;-70
2022/06/24 10:30:40;;;;;;;14.98;7.05;;;19.40;99.90;;;;;;5048969;28;20101;-70
2022/06/24 10:33:16;;;;;;;19.40;8.02;;;19.40;99.90;;;;;;5058256;28;20557;-70
2022/06/24 10:36:02;;;;;;;16.38;8.02;;;19.40;99.90;;;;;;5040625;28;20091;-70
2022/06/24 10:38:39;;;;;;;15.82;9.18;;;19.40;99.90;;;;;;5037155;28;20135;-70
2022/06/24 10:41:09;;;;;;;20.92;8.75;;;19.30;99.90;;;;;;5029423;28;20041;-70
2022/06/24 10:43:38;;;;;;;18.48;9.63;;;19.30;99.90;;;;;;5029318;28;20499;-70
2022/06/24 10:46:12;;;;;;;23.90;9.80;;;19.20;99.90;;;;;;5030073;28;20423;-70
2022/06/24 10:48:44;;;;;;;19.33;11.05;;;19.20;99.90;;;;;;5032102;28;20152;-71
2022/06/24 10:51:14;;;;;;;27.75;12.27;;;19.20;99.90;;;;;;5049138;28;20049;-70
2022/06/24 10:54:02;;;;;;;19.83;10.55;;;19.20;99.90;;;;;;5035893;28;20041;-70
2022/06/24 10:56:47;;;;;;;18.20;8.60;;;19.10;99.90;;;;;;5035489;28;20041;-69
2022/06/24 10:59:16;;;;;;;14.57;8.88;;;19.10;99.90;;;;;;5029126;28;20056;-69
2022/06/24 11:01:45;;;;;;;14.60;8.15;;;19.00;99.90;;;;;;5029750;28;20064;-69
2022/06/24 11:04:15;;;;;;;13.68;9.02;;;18.90;99.90;;;;;;5040465;28;20061;-70
2022/06/24 11:07:08;;;;;;;14.65;8.48;;;18.90;99.90;;;;;;5042408;28;20091;-70
2022/06/24 11:09:35;;;;;;;14.60;7.63;;;18.80;99.90;;;;;;5048965;28;20124;-70
2022/06/24 11:12:05;;;;;;;15.55;7.82;;;18.80;99.90;;;;;;5040645;28;20098;-70
2022/06/24 11:14:30;;;;;;;16.02;6.15;;;18.70;99.90;;;;;;5047559;28;20045;-68
2022/06/24 11:16:56;;;;;;;10.57;5.25;;;18.70;99.90;;;;;;5032433;28;20051;-69
2022/06/24 11:19:22;;;;;;;12.43;4.22;;;18.50;99.90;;;;;;5034147;28;20055;-69
2022/06/24 11:21:49;;;;;;;6.40;3.90;;;18.40;99.90;;;;;;5048541;28;20126;-69
2022/06/24 11:24:19;;;;;;;7.53;4.60;;;18.30;99.90;;;;;;5047723;28;20111;-69
2022/06/24 11:27:17;;;;;;;8.27;4.20;;;18.20;99.90;;;;;;5043569;28;20045;-69
2022/06/24 11:29:53;;;;;;;7.05;4.40;;;18.20;99.90;;;;;;5012567;28;20054;-69
2022/06/24 11:32:20;;;;;;;5.53;3.78;;;18.10;99.90;;;;;;5045741;28;20052;-70
2022/06/24 11:34:48;;;;;;;5.72;3.58;;;18.10;99.90;;;;;;5039320;28;20542;-69
2022/06/24 11:37:13;;;;;;;;;;;18.10;99.90;;;;;;5036910;28;20080;-69
2022/06/24 11:39:39;;;;;;;20.67;4.45;;;18.00;99.90;;;;;;5038492;28;20022;-69
2022/06/24 11:42:05;;;;;;;11.60;5.00;;;17.90;99.90;;;;;;5035283;28;20042;-69
2022/06/24 11:44:35;;;;;;;9.93;4.97;;;17.80;99.90;;;;;;5051946;28;20048;-69
2022/06/24 11:47:02;;;;;;;7.38;5.50;;;17.90;99.90;;;;;;5048935;28;20478;-70
2022/06/24 11:49:32;;;;;;;8.30;4.80;;;17.90;99.90;;;;;;5050727;28;20041;-70
2022/06/24 11:51:57;;;;;;;7.65;5.70;;;17.80;99.90;;;;;;5035526;28;20092;-69
2022/06/24 11:54:30;;;;;;;11.13;5.60;;;17.90;99.90;;;;;;5019618;28;20511;-70
2022/06/24 11:56:57;;;;;;;10.85;5.60;;;17.90;99.90;;;;;;5051215;28;20124;-70
2022/06/24 11:59:26;;;;;;;9.45;6.07;;;17.90;99.90;;;;;;5047869;28;20059;-69
2022/06/24 12:01:52;;;;;;;16.30;6.18;;;17.90;99.90;;;;;;5048943;28;20815;-69
2022/06/24 12:04:23;;;;;;;9.93;6.45;;;18.00;99.90;;;;;;5042865;28;20411;-69
2022/06/24 12:06:50;;;;;;;12.63;7.47;;;18.00;99.90;;;;;;5048674;28;20053;-69
2022/06/24 12:09:16;;;;;;;9.52;6.90;;;18.10;99.90;;;;;;5049397;28;20045;-69
2022/06/24 12:11:43;;;;;;;11.48;7.28;;;18.10;99.90;;;;;;5034477;28;20050;-69
2022/06/24 12:14:18;;;;;;;;;;;18.20;99.90;;;;;;5045417;28;20092;-69
2022/06/24 12:16:58;;;;;;;10.63;6.32;;;18.20;99.90;;;;;;5045818;28;19974;-68
2022/06/24 12:19:25;;;;;;;8.10;6.78;;;18.20;99.90;;;;;;5049209;28;20491;-68
2022/06/24 12:22:11;;;;;;;11.52;6.70;;;18.20;99.90;;;;;;5053665;28;20049;-68
2022/06/24 12:24:38;;;;;;;10.77;6.90;;;18.20;99.90;;;;;;5047511;28;20041;-70
2022/06/24 12:27:06;;;;;;;10.37;6.37;;;18.20;99.90;;;;;;5055123;28;20407;-68
2022/06/24 12:29:39;;;;;;;7.65;6.78;;;18.20;99.90;;;;;;5051772;28;20513;-69
2022/06/24 12:32:06;;;;;;;10.88;6.30;;;18.20;99.90;;;;;;5044953;28;20372;-69
2022/06/24 12:34:37;;;;;;;12.18;7.03;;;18.20;99.90;;;;;;5045599;28;20048;-68
2022/06/24 12:37:12;;;;;;;10.77;6.82;;;18.20;99.90;;;;;;5051172;28;20049;-68
2022/06/24 12:39:40;;;;;;;8.65;6.43;;;18.20;99.90;;;;;;5051318;28;20206;-68
2022/06/24 12:42:07;;;;;;;11.15;6.68;;;18.20;99.90;;;;;;5047437;28;20056;-68
2022/06/24 12:44:42;;;;;;;10.70;7.15;;;18.30;99.90;;;;;;5051522;28;20126;-69
2022/06/24 12:52:45;;;;;;;13.38;7.35;;;18.70;99.90;;;;;;5047891;28;20050;-70
2022/06/24 12:55:16;;;;;;;8.50;6.97;;;18.80;99.90;;;;;;5031336;28;20045;-70
2022/06/24 12:57:42;;;;;;;11.90;7.22;;;18.90;99.90;;;;;;5031136;28;20053;-69
2022/06/24 13:00:11;;;;;;;11.75;7.43;;;19.00;99.90;;;;;;5039444;28;20098;-69